Time;durP1;ratioP1;P1;durP2;ratioP2;P2;SDS_P1;SDS_P2;PMS_P1;PMS_P2;Temp;Humidity;BMP_temperature;BMP_pressure;BME280_temperature;BME280_humidity;BME280_pressure;Samples;Min_cycle;Max_cycle;Signal;HPM_P1;HPM_P2
2022/04/05 00:03:49;;;;;;;16.62;7.10;;;;;;;7.17;47.93;98043.75;4449335;32;20230;-87
2022/04/05 00:06:14;;;;;;;17.10;7.62;;;;;;;7.12;48.30;98033.50;4438294;32;20082;-88
2022/04/05 00:08:43;;;;;;;17.02;8.13;;;;;;;7.17;48.22;98028.03;4453125;32;20108;-89
2022/04/05 00:11:08;;;;;;;15.38;7.30;;;;;;;7.19;48.24;98034.03;4437525;32;20147;-92
2022/04/05 00:13:34;;;;;;;15.98;7.68;;;;;;;7.14;48.42;98039.50;4451207;32;20097;-90
2022/04/05 00:16:00;;;;;;;16.37;7.47;;;;;;;7.22;48.33;98029.47;4451139;32;20097;-90
2022/04/05 00:18:25;;;;;;;16.55;7.80;;;;;;;7.16;48.37;98026.31;4452093;32;20096;-93
2022/04/05 00:20:51;;;;;;;17.62;7.97;;;;;;;7.19;48.37;98005.22;4455214;32;20138;-88
2022/04/05 00:23:16;;;;;;;16.30;7.12;;;;;;;7.22;48.57;98016.38;4454185;32;20429;-88
2022/04/05 00:25:42;;;;;;;13.88;6.75;;;;;;;7.22;48.44;98005.91;4452988;32;20285;-88
2022/04/05 00:28:08;;;;;;;15.43;7.28;;;;;;;7.13;49.01;98006.41;4437177;32;20186;-92
2022/04/05 00:30:33;;;;;;;17.67;7.62;;;;;;;7.21;48.61;98006.81;4441286;32;20085;-87
2022/04/05 00:32:59;;;;;;;16.92;7.10;;;;;;;7.27;48.53;98000.41;4455587;32;20113;-87
2022/04/05 00:35:24;;;;;;;16.08;7.20;;;;;;;7.20;48.42;97988.56;4455084;32;20494;-88
2022/04/05 00:37:50;;;;;;;14.60;6.57;;;;;;;7.20;48.63;97993.78;4456222;32;20105;-86
2022/04/05 00:40:16;;;;;;;13.80;6.32;;;;;;;7.38;48.51;97997.19;4429401;32;20085;-87
2022/04/05 00:42:41;;;;;;;14.73;6.53;;;;;;;7.37;48.29;98000.75;4456143;32;20459;-86
2022/04/05 00:45:07;;;;;;;13.90;6.93;;;;;;;7.50;47.94;97993.09;4442150;32;20128;-86
2022/04/05 00:47:34;;;;;;;14.85;6.07;;;;;;;7.51;47.96;97998.22;4456336;32;20486;-86
2022/04/05 00:50:00;;;;;;;14.00;6.53;;;;;;;7.50;47.83;97993.91;4429014;32;20092;-88
2022/04/05 00:52:25;;;;;;;17.37;6.82;;;;;;;7.73;47.49;98002.31;4441444;32;20111;-87
2022/04/05 00:54:52;;;;;;;14.85;6.93;;;;;;;7.76;47.56;97996.87;4442039;32;20105;-86
2022/04/05 00:57:22;;;;;;;15.02;6.97;;;;;;;7.71;47.60;97985.78;4442240;32;20417;-86
2022/04/05 00:59:49;;;;;;;14.60;7.03;;;;;;;7.91;47.23;97992.56;4456579;32;20111;-85
2022/04/05 01:02:18;;;;;;;16.58;7.22;;;;;;;7.94;47.30;97993.22;4442244;32;20107;-86
2022/04/05 01:04:44;;;;;;;15.82;6.80;;;;;;;7.92;47.37;97987.22;4456459;32;20084;-86
2022/04/05 01:07:22;;;;;;;16.27;7.28;;;;;;;7.97;47.38;97984.31;4456202;32;20480;-86
2022/04/05 01:09:53;;;;;;;14.85;7.18;;;;;;;8.13;47.03;97985.16;4442673;32;20367;-86
2022/04/05 01:12:19;;;;;;;16.02;7.35;;;;;;;8.08;47.38;97981.94;4456198;32;20072;-86
2022/04/05 01:14:44;;;;;;;14.70;6.75;;;;;;;8.08;47.22;97977.53;4455275;32;20451;-87
2022/04/05 01:17:10;;;;;;;15.68;6.85;;;;;;;8.18;46.79;97984.88;4441916;32;20143;-87
2022/04/05 01:19:35;;;;;;;15.80;6.43;;;;;;;8.28;46.94;97978.16;4455921;32;20134;-85
2022/04/05 01:22:01;;;;;;;14.85;7.12;;;;;;;8.31;46.74;97980.63;4441913;32;20081;-86
2022/04/05 01:24:27;;;;;;;15.05;7.07;;;;;;;8.26;46.85;97985.28;4456154;32;20115;-86
2022/04/05 01:26:57;;;;;;;13.13;5.87;;;;;;;8.25;46.75;97978.34;4441695;32;20161;-86
2022/04/05 01:29:25;;;;;;;13.38;6.57;;;;;;;8.15;46.91;97977.19;4456089;32;20165;-85
2022/04/05 01:31:52;;;;;;;;;;;;;;;8.24;46.79;97976.66;4456477;32;20463;-85
2022/04/05 01:34:21;;;;;;;14.55;6.35;;;;;;;8.31;46.48;97977.16;4442778;32;19981;-86
2022/04/05 01:36:50;;;;;;;16.00;6.90;;;;;;;8.39;46.16;97973.13;4426640;32;20123;-86
2022/04/05 01:39:17;;;;;;;13.27;6.05;;;;;;;8.30;46.43;97973.66;4426695;32;20529;-87
2022/04/05 01:41:43;;;;;;;13.87;6.10;;;;;;;8.23;46.43;97967.94;4440360;32;20081;-85
2022/04/05 01:44:10;;;;;;;14.48;6.32;;;;;;;8.32;46.22;97968.34;4440390;32;20093;-86
2022/04/05 01:46:36;;;;;;;13.32;6.20;;;;;;;8.29;46.15;97966.75;4440366;32;20526;-87
2022/04/05 01:49:08;;;;;;;13.73;5.87;;;;;;;8.35;45.93;97974.25;4440072;32;20113;-85
2022/04/05 01:51:37;;;;;;;14.18;6.30;;;;;;;8.42;45.94;97962.50;4426568;32;20147;-88
2022/04/05 01:54:05;;;;;;;13.02;6.10;;;;;;;8.44;45.87;97972.87;4450643;32;20506;-88
2022/04/05 01:56:51;;;;;;;14.57;5.47;;;;;;;8.46;45.79;97963.16;4455872;32;20093;-88
2022/04/05 01:59:19;;;;;;;13.02;5.70;;;;;;;8.42;45.83;97959.00;4455833;32;20093;-87
2022/04/05 02:01:44;;;;;;;13.25;5.85;;;;;;;8.43;45.99;97956.28;4441935;32;20107;-87
2022/04/05 02:04:11;;;;;;;14.80;6.75;;;;;;;8.43;45.99;97952.84;4455851;32;20127;-89
2022/04/05 02:06:38;;;;;;;14.50;6.20;;;;;;;8.46;45.49;97947.41;4455979;32;20493;-86
2022/04/05 02:09:04;;;;;;;14.35;5.43;;;;;;;8.56;45.65;97952.97;4456054;32;20122;-88
2022/04/05 02:11:29;;;;;;;13.48;6.20;;;;;;;8.47;45.71;97951.72;4440446;32;20405;-87
2022/04/05 02:13:55;;;;;;;13.13;5.68;;;;;;;8.60;45.32;97943.97;4455899;32;20085;-87
2022/04/05 02:16:20;;;;;;;12.52;5.40;;;;;;;8.52;45.44;97943.56;4441697;32;20150;-87
2022/04/05 02:18:46;;;;;;;14.80;5.72;;;;;;;8.51;45.60;97945.34;4455521;32;20089;-87
2022/04/05 02:21:11;;;;;;;13.38;5.85;;;;;;;8.45;45.58;97949.16;4441465;32;20463;-85
2022/04/05 02:23:37;;;;;;;13.13;5.82;;;;;;;8.57;45.22;97952.84;4455417;32;20428;-87
2022/04/05 02:26:02;;;;;;;13.75;6.07;;;;;;;8.63;45.29;97956.88;4452747;32;20085;-87
2022/04/05 02:28:28;;;;;;;14.10;5.87;;;;;;;8.63;44.96;97946.38;4439993;32;20133;-88
2022/04/05 02:30:54;;;;;;;12.57;5.60;;;;;;;8.59;45.25;97943.09;4423074;32;20119;-87
2022/04/05 02:33:20;;;;;;;12.88;6.10;;;;;;;8.64;45.11;97934.97;4424565;32;20121;-86
2022/04/05 02:35:46;;;;;;;11.52;5.53;;;;;;;8.74;44.95;97935.25;4423514;32;20109;-86
2022/04/05 02:38:11;;;;;;;12.75;5.15;;;;;;;8.81;44.95;97933.94;4424661;32;20442;-86
2022/04/05 02:40:37;;;;;;;13.57;5.60;;;;;;;8.60;44.95;97939.53;4422624;32;20090;-89
2022/04/05 02:43:06;;;;;;;13.55;5.40;;;;;;;8.66;44.81;97933.09;4423802;32;20094;-88
2022/04/05 02:45:32;;;;;;;13.38;5.75;;;;;;;8.80;44.71;97927.00;4435900;32;20172;-88
2022/04/05 02:47:57;;;;;;;12.43;5.10;;;;;;;8.91;44.65;97927.19;4424455;32;20089;-87
2022/04/05 02:50:23;;;;;;;12.50;5.00;;;;;;;8.74;44.84;97928.19;4423155;32;20094;-88
2022/04/05 02:52:49;;;;;;;12.55;5.25;;;;;;;8.77;44.72;97927.16;4424303;32;20124;-88
2022/04/05 02:55:16;;;;;;;13.13;4.78;;;;;;;8.93;44.59;97929.72;4423214;32;20195;-87
2022/04/05 02:57:43;;;;;;;12.85;5.25;;;;;;;8.95;44.47;97919.97;4424429;32;20089;-88
2022/04/05 03:00:11;;;;;;;12.30;5.47;;;;;;;8.98;44.35;97909.25;4424356;32;20116;-89
2022/04/05 03:02:36;;;;;;;;;;;;;;;8.95;44.08;97920.78;4424458;32;20102;-89
2022/04/05 03:05:02;;;;;;;13.68;5.57;;;;;;;8.85;44.32;97927.56;4423090;32;20378;-90
2022/04/05 03:07:28;;;;;;;12.37;5.43;;;;;;;9.02;44.15;97914.22;4424126;32;20120;-88
2022/04/05 03:09:53;;;;;;;11.68;5.78;;;;;;;8.60;44.71;97918.53;4424234;32;20082;-87
2022/04/05 03:12:19;;;;;;;13.43;5.85;;;;;;;8.84;44.49;97918.81;4424271;32;20147;-88
2022/04/05 03:14:45;;;;;;;14.52;6.12;;;;;;;8.89;44.29;97910.69;4424212;32;20437;-88
2022/04/05 03:17:12;;;;;;;13.00;5.80;;;;;;;8.84;44.34;97910.94;4424181;32;20472;-88
2022/04/05 03:19:37;;;;;;;15.48;6.95;;;;;;;8.78;44.60;97903.44;4424365;32;20200;-89
2022/04/05 03:22:05;;;;;;;12.93;6.07;;;;;;;8.61;45.20;97911.50;4423710;32;20101;-89
2022/04/05 03:24:31;;;;;;;16.55;7.20;;;;;;;8.65;45.13;97897.25;4423539;32;20097;-89
2022/04/05 03:26:57;;;;;;;12.98;6.40;;;;;;;8.74;44.94;97904.56;4423939;32;20136;-90
2022/04/05 03:29:23;;;;;;;13.48;6.28;;;;;;;8.72;45.21;97900.38;4424032;32;20093;-90
2022/04/05 03:31:48;;;;;;;14.10;6.30;;;;;;;8.69;45.09;97904.00;4432392;32;20124;-89
2022/04/05 03:34:14;;;;;;;13.32;5.85;;;;;;;8.78;45.03;97890.31;4439303;32;20365;-89
2022/04/05 03:36:41;;;;;;;15.48;6.68;;;;;;;8.64;45.28;97891.16;4439104;32;20479;-88
2022/04/05 03:39:07;;;;;;;13.30;6.00;;;;;;;8.54;45.22;97897.91;4425224;32;20085;-87
2022/04/05 03:41:32;;;;;;;14.87;5.72;;;;;;;8.60;45.25;97892.28;4441470;32;20145;-87
2022/04/05 03:43:58;;;;;;;12.65;5.80;;;;;;;8.55;45.50;97889.09;4454648;32;20101;-87
2022/04/05 03:46:23;;;;;;;14.05;6.25;;;;;;;8.42;45.81;97894.25;4454469;32;20428;-86
2022/04/05 03:48:49;;;;;;;14.50;6.12;;;;;;;8.44;45.70;97887.13;4454568;32;20182;-86
2022/04/05 03:51:14;;;;;;;13.10;5.45;;;;;;;8.49;45.54;97889.47;4440217;32;20427;-87
2022/04/05 03:53:40;;;;;;;14.50;5.87;;;;;;;8.49;45.60;97886.84;4456164;32;20116;-87
2022/04/05 03:56:05;;;;;;;13.35;5.82;;;;;;;8.48;45.69;97886.94;4455391;32;20085;-87
2022/04/05 03:58:31;;;;;;;15.00;5.68;;;;;;;8.46;45.68;97880.00;4456526;32;20118;-87
2022/04/05 04:00:56;;;;;;;14.00;6.10;;;;;;;8.48;45.56;97884.31;4441435;32;20159;-86
2022/04/05 04:03:21;;;;;;;13.77;6.18;;;;;;;8.72;44.97;97876.72;4455796;32;20120;-87
2022/04/05 04:05:47;;;;;;;13.77;5.72;;;;;;;8.72;44.97;97888.06;4456337;32;20084;-89
2022/04/05 04:08:12;;;;;;;12.45;5.75;;;;;;;8.61;45.32;97888.72;4456472;32;20388;-88
2022/04/05 04:10:38;;;;;;;13.38;6.03;;;;;;;8.77;45.05;97887.78;4441997;32;20457;-88
2022/04/05 04:13:04;;;;;;;13.30;5.80;;;;;;;8.73;45.01;97894.16;4456597;32;20122;-89
2022/04/05 04:15:29;;;;;;;12.07;5.18;;;;;;;8.72;45.02;97888.06;4456382;32;20117;-87
2022/04/05 04:17:54;;;;;;;14.13;6.12;;;;;;;8.85;44.94;97883.75;4455847;32;20138;-84
2022/04/05 04:20:20;;;;;;;11.85;5.12;;;;;;;8.91;44.71;97879.91;4454419;32;20101;-84
2022/04/05 04:22:45;;;;;;;12.23;5.60;;;;;;;8.95;44.63;97875.31;4441139;32;20154;-85
2022/04/05 04:25:11;;;;;;;14.93;5.87;;;;;;;8.90;44.57;97880.00;4455654;32;20089;-85
2022/04/05 04:27:36;;;;;;;12.77;5.80;;;;;;;8.96;44.63;97879.59;4456372;32;20073;-85
2022/04/05 04:30:03;;;;;;;13.80;5.90;;;;;;;8.94;44.81;97886.72;4454885;32;20158;-84
2022/04/05 04:32:28;;;;;;;12.90;5.45;;;;;;;8.92;44.69;97883.38;4439126;32;20440;-85
2022/04/05 04:34:54;;;;;;;13.10;5.90;;;;;;;8.83;44.81;97877.75;4440539;32;20081;-84
2022/04/05 04:37:19;;;;;;;14.25;5.57;;;;;;;8.97;44.77;97878.69;4438963;32;20117;-84
2022/04/05 04:39:45;;;;;;;13.20;6.22;;;;;;;8.96;44.73;97885.72;4440668;32;20112;-84
2022/04/05 04:42:12;;;;;;;13.00;5.37;;;;;;;8.96;44.60;97885.72;4439005;32;20110;-85
2022/04/05 04:44:37;;;;;;;14.27;6.55;;;;;;;9.03;44.64;97880.91;4439427;32;20119;-88
2022/04/05 04:47:03;;;;;;;14.15;5.53;;;;;;;9.01;44.87;97888.03;4440397;32;20085;-85
2022/04/05 04:49:29;;;;;;;12.57;5.72;;;;;;;9.14;44.60;97896.84;4439045;32;20167;-84
2022/04/05 04:51:54;;;;;;;15.13;7.62;;;;;;;9.07;44.86;97892.91;4434798;32;20146;-84
2022/04/05 04:54:19;;;;;;;15.00;7.32;;;;;;;9.28;45.12;97889.87;4423792;32;20342;-84
2022/04/05 04:56:45;;;;;;;15.90;7.45;;;;;;;9.32;45.06;97883.47;4424951;32;20108;-84
2022/04/05 04:59:10;;;;;;;16.35;7.70;;;;;;;9.49;44.96;97882.41;4425218;32;20441;-84
2022/04/05 05:01:36;;;;;;;18.33;8.55;;;;;;;9.63;44.84;97884.97;4433226;32;20168;-81
2022/04/05 05:04:01;;;;;;;18.48;8.77;;;;;;;9.76;44.86;97877.13;4439011;32;20101;-84
2022/04/05 05:06:27;;;;;;;19.87;8.98;;;;;;;9.80;44.79;97886.50;4440512;32;20455;-83
2022/04/05 05:08:52;;;;;;;20.17;9.43;;;;;;;9.88;44.84;97886.84;4440557;32;20089;-85
2022/04/05 05:11:17;;;;;;;17.02;9.02;;;;;;;9.78;44.81;97886.59;4439062;32;20136;-85
2022/04/05 05:13:43;;;;;;;16.27;8.57;;;;;;;9.99;44.69;97884.34;4440582;32;20525;-85
2022/04/05 05:16:08;;;;;;;19.83;9.35;;;;;;;10.04;44.52;97878.75;4440486;32;20089;-91
2022/04/05 05:18:34;;;;;;;18.92;9.35;;;;;;;9.98;44.51;97882.63;4440229;32;20125;-84
2022/04/05 05:20:59;;;;;;;19.33;10.05;;;;;;;10.16;44.22;97882.34;4438802;32;20129;-84
2022/04/05 05:23:25;;;;;;;20.12;10.50;;;;;;;10.34;44.33;97881.16;4438879;32;20081;-85
2022/04/05 05:25:50;;;;;;;21.23;10.27;;;;;;;10.51;44.14;97880.00;4439164;32;20084;-85
2022/04/05 05:28:15;;;;;;;20.92;10.48;;;;;;;10.57;43.83;97876.94;4440392;32;20148;-86
2022/04/05 05:30:41;;;;;;;18.77;9.52;;;;;;;10.73;43.55;97874.06;4435424;32;20129;-86
2022/04/05 05:33:07;;;;;;;21.35;10.95;;;;;;;10.83;43.41;97874.28;4450488;32;20123;-85
2022/04/05 05:35:33;;;;;;;19.62;9.70;;;;;;;10.97;42.63;97882.06;4441092;32;20108;-85
2022/04/05 05:37:58;;;;;;;19.73;10.13;;;;;;;11.01;42.79;97872.97;4442026;32;20156;-85
2022/04/05 05:40:24;;;;;;;18.35;9.95;;;;;;;11.01;42.82;97874.78;4455738;32;20128;-85
2022/04/05 05:42:58;;;;;;;20.05;10.32;;;;;;;11.04;42.62;97881.63;4455788;32;20113;-85
2022/04/05 05:45:25;;;;;;;20.85;9.90;;;;;;;10.89;42.71;97883.53;4441646;32;20081;-84
2022/04/05 05:47:51;;;;;;;18.25;10.68;;;;;;;10.73;43.23;97881.13;4448025;32;20089;-84
2022/04/05 05:50:17;;;;;;;19.17;9.82;;;;;;;10.74;43.41;97883.69;4440236;32;20396;-84
2022/04/05 05:52:44;;;;;;;21.83;9.98;;;;;;;10.62;43.74;97885.38;4426384;32;20115;-83
2022/04/05 05:55:10;;;;;;;18.77;9.88;;;;;;;10.74;43.53;97899.47;4426469;32;20085;-85
2022/04/05 05:57:36;;;;;;;20.20;10.60;;;;;;;10.76;43.46;97897.56;4440281;32;20423;-85
2022/04/05 06:00:07;;;;;;;20.95;10.73;;;;;;;10.87;43.25;97896.81;4426231;32;20112;-86
2022/04/05 06:02:42;;;;;;;19.40;10.02;;;;;;;10.98;43.20;97901.34;4410125;32;112663;-85
2022/04/05 06:05:08;;;;;;;19.35;9.57;;;;;;;11.10;43.11;97905.72;4440236;32;20108;-85
2022/04/05 06:07:34;;;;;;;19.08;9.15;;;;;;;11.18;42.86;97907.81;4431395;32;20097;-86
2022/04/05 06:10:03;;;;;;;21.37;10.40;;;;;;;11.28;42.40;97915.91;4455828;32;20093;-85
2022/04/05 06:12:29;;;;;;;20.05;10.05;;;;;;;11.29;42.49;97920.25;4455708;32;20077;-86
2022/04/05 06:14:54;;;;;;;18.90;9.70;;;;;;;11.35;42.54;97910.09;4453070;32;20130;-84
2022/04/05 06:17:20;;;;;;;19.25;9.88;;;;;;;11.45;41.90;97917.34;4455586;32;20113;-85
2022/04/05 06:19:46;;;;;;;20.27;10.13;;;;;;;11.53;41.84;97922.91;4455660;32;20085;-85
2022/04/05 06:22:12;;;;;;;18.87;10.25;;;;;;;11.55;41.72;97907.81;4441563;32;20461;-85
2022/04/05 06:24:38;;;;;;;18.27;9.98;;;;;;;11.61;41.94;97910.88;4455509;32;20073;-87
2022/04/05 06:27:04;;;;;;;21.55;10.18;;;;;;;11.70;41.97;97909.34;4452870;32;20097;-85
2022/04/05 06:29:29;;;;;;;21.42;10.02;;;;;;;11.76;42.03;97908.03;4426081;32;20182;-86
2022/04/05 06:31:55;;;;;;;19.67;9.55;;;;;;;11.88;41.63;97908.94;4422003;32;20770;-85
2022/04/05 06:34:21;;;;;;;17.23;9.48;;;;;;;12.17;40.83;97905.00;4422717;32;20093;-90
2022/04/05 06:36:46;;;;;;;17.70;9.02;;;;;;;12.41;39.64;97901.47;4423228;32;20154;-90
2022/04/05 06:39:13;;;;;;;20.52;9.48;;;;;;;12.53;39.43;97902.31;4424640;32;20132;-89
2022/04/05 06:41:39;;;;;;;14.35;7.35;;;;;;;12.65;39.33;97900.53;4410744;32;20116;-90
2022/04/05 06:44:05;;;;;;;17.70;8.85;;;;;;;12.75;38.28;97894.44;4423460;32;20441;-90
2022/04/05 06:46:31;;;;;;;16.42;8.77;;;;;;;12.81;38.70;97898.41;4423299;32;20110;-88
2022/04/05 06:48:57;;;;;;;18.30;9.13;;;;;;;12.93;38.57;97902.72;4424213;32;20128;-89
2022/04/05 06:51:24;;;;;;;18.85;8.75;;;;;;;12.95;38.44;97886.75;4424552;32;20112;-89
2022/04/05 06:53:50;;;;;;;18.67;8.32;;;;;;;13.08;38.53;97884.81;4424537;32;20117;-89
2022/04/05 06:56:15;;;;;;;14.65;6.60;;;;;;;13.17;38.02;97884.09;4424408;32;20153;-89
2022/04/05 06:58:40;;;;;;;12.98;6.28;;;;;;;13.19;37.18;97894.53;4424437;32;20125;-89
2022/04/05 07:01:06;;;;;;;14.00;7.12;;;;;;;12.97;37.44;97890.09;4424261;32;20090;-89
2022/04/05 07:03:31;;;;;;;15.23;6.72;;;;;;;13.01;37.55;97880.13;4424442;32;20089;-90
2022/04/05 07:05:58;;;;;;;16.45;7.90;;;;;;;12.89;37.49;97903.09;4424276;32;20117;-90
2022/04/05 07:08:23;;;;;;;16.75;8.20;;;;;;;12.80;37.56;97907.28;4422944;32;20491;-89
2022/04/05 07:10:50;;;;;;;17.17;7.93;;;;;;;12.90;37.89;97905.63;4424186;32;20086;-91
2022/04/05 07:13:16;;;;;;;15.82;7.82;;;;;;;12.95;37.47;97905.25;4424314;32;20161;-89
2022/04/05 07:15:43;;;;;;;15.65;7.35;;;;;;;12.91;37.79;97902.00;4424310;32;20094;-89
2022/04/05 07:18:09;;;;;;;15.30;7.12;;;;;;;12.98;38.13;97895.28;4424234;32;20082;-88
2022/04/05 07:20:34;;;;;;;18.00;7.65;;;;;;;13.09;37.99;97897.06;4423561;32;20153;-89
2022/04/05 07:23:00;;;;;;;14.85;6.07;;;;;;;13.30;38.16;97899.81;4422505;32;20361;-87
2022/04/05 07:25:26;;;;;;;12.55;5.70;;;;;;;13.05;37.17;97892.13;4422739;32;20139;-88
2022/04/05 07:27:51;;;;;;;11.63;5.50;;;;;;;13.37;36.36;97889.63;4411297;32;20155;-88
2022/04/05 07:30:18;;;;;;;12.37;5.55;;;;;;;13.64;35.96;97891.00;4410749;32;20148;-88
2022/04/05 07:32:45;;;;;;;12.75;5.75;;;;;;;13.73;35.64;97879.63;4417301;32;20125;-87
2022/04/05 07:35:13;;;;;;;12.60;5.82;;;;;;;13.75;35.20;97881.22;4425690;32;20097;-89
2022/04/05 07:37:39;;;;;;;14.38;5.25;;;;;;;13.72;35.78;97878.81;4425616;32;20163;-90
2022/04/05 07:40:08;;;;;;;13.02;5.53;;;;;;;13.92;35.69;97874.50;4425654;32;20425;-87
2022/04/05 07:42:34;;;;;;;12.70;6.03;;;;;;;14.14;34.95;97864.78;4425919;32;20139;-88
2022/04/05 07:44:59;;;;;;;12.27;5.53;;;;;;;14.25;34.77;97863.88;4424461;32;20133;-88
2022/04/05 07:47:25;;;;;;;11.32;5.05;;;;;;;14.29;34.37;97874.09;4425859;32;20123;-89
2022/04/05 07:49:50;;;;;;;14.20;5.53;;;;;;;14.31;34.25;97880.09;4425944;32;20090;-87
2022/04/05 07:52:16;;;;;;;12.13;5.55;;;;;;;14.19;33.89;97881.13;4426153;32;20105;-88
2022/04/05 07:54:42;;;;;;;13.68;5.37;;;;;;;13.86;34.66;97895.38;4424702;32;20176;-88
2022/04/05 07:57:09;;;;;;;13.18;5.45;;;;;;;14.15;34.34;97892.94;4426031;32;20163;-88
2022/04/05 07:59:36;;;;;;;12.35;5.37;;;;;;;14.23;34.61;97882.53;4426002;32;20152;-87
2022/04/05 08:02:01;;;;;;;14.00;5.93;;;;;;;14.32;34.32;97881.75;4434584;32;20364;-87
2022/04/05 08:04:27;;;;;;;11.90;5.05;;;;;;;14.48;34.43;97888.41;4439854;32;20095;-88
2022/04/05 08:06:52;;;;;;;11.50;5.35;;;;;;;14.57;33.75;97890.31;4440824;32;20119;-88
2022/04/05 08:09:17;;;;;;;12.82;5.37;;;;;;;14.62;33.25;97880.19;4441017;32;20389;-93
2022/04/05 08:11:43;;;;;;;12.77;5.47;;;;;;;14.27;33.13;97883.13;4439158;32;20455;-91
2022/04/05 08:14:08;;;;;;;12.05;5.40;;;;;;;14.10;33.39;97888.03;4440957;32;20089;-91
2022/04/05 08:16:34;;;;;;;12.45;5.28;;;;;;;14.32;33.05;97884.41;4440593;32;20097;-91
2022/04/05 08:18:59;;;;;;;11.55;5.18;;;;;;;14.39;33.38;97882.09;4440909;32;20456;-91
2022/04/05 08:21:25;;;;;;;12.23;5.25;;;;;;;14.44;33.07;97890.47;4426719;32;20369;-91
2022/04/05 08:23:52;;;;;;;11.45;5.18;;;;;;;14.62;32.83;97885.47;4441077;32;20093;-90
2022/04/05 08:26:18;;;;;;;13.13;5.45;;;;;;;14.79;32.16;97888.47;4435236;32;20102;-91
2022/04/05 08:28:43;;;;;;;10.85;5.22;;;;;;;14.83;32.52;97885.41;4425422;32;20110;-92
2022/04/05 08:31:09;;;;;;;12.00;5.12;;;;;;;14.90;33.02;97886.56;4437793;32;20089;-90
2022/04/05 08:33:34;;;;;;;12.93;5.82;;;;;;;14.64;33.09;97888.84;4454211;32;20120;-91
2022/04/05 08:36:00;;;;;;;10.95;5.10;;;;;;;15.00;33.24;97883.97;4456284;32;20116;-91
2022/04/05 08:38:28;;;;;;;10.68;4.85;;;;;;;15.00;32.64;97880.47;4441652;32;20081;-88
2022/04/05 08:40:54;;;;;;;12.68;5.35;;;;;;;14.53;32.57;97888.88;4453529;32;20093;-91
2022/04/05 08:43:19;;;;;;;11.52;5.05;;;;;;;14.97;32.33;97878.94;4441085;32;20343;-89
2022/04/05 08:45:46;;;;;;;12.85;5.00;;;;;;;14.84;32.76;97889.75;4456501;32;20109;-92
2022/04/05 08:48:12;;;;;;;10.57;4.68;;;;;;;15.14;32.56;97877.44;4442372;32;20097;-89
2022/04/05 08:50:38;;;;;;;12.70;5.37;;;;;;;15.30;32.23;97872.47;4456398;32;20451;-89
2022/04/05 08:53:04;;;;;;;12.27;5.50;;;;;;;15.40;31.65;97890.25;4456517;32;20117;-88
2022/04/05 08:55:29;;;;;;;11.60;5.32;;;;;;;15.65;32.05;97880.94;4442522;32;20100;-88
2022/04/05 08:57:55;;;;;;;11.35;4.93;;;;;;;15.63;31.67;97877.56;4442181;32;20403;-88
2022/04/05 09:00:22;;;;;;;11.45;5.35;;;;;;;15.82;31.33;97885.59;4455523;32;20090;-88
2022/04/05 09:03:05;;;;;;;11.85;4.87;;;;;;;16.05;31.50;97879.97;4426877;32;20171;-89
2022/04/05 09:05:36;;;;;;;12.02;5.47;;;;;;;16.02;31.40;97867.81;4440613;32;20170;-89
2022/04/05 09:08:30;;;;;;;12.65;5.00;;;;;;;16.20;30.99;97885.69;4426618;32;20093;-88
2022/04/05 09:11:05;;;;;;;11.80;4.65;;;;;;;16.21;31.45;97887.41;4430312;32;20101;-89
2022/04/05 09:13:31;;;;;;;10.35;4.28;;;;;;;15.99;30.45;97880.53;4441322;32;20170;-90
2022/04/05 09:15:58;;;;;;;10.73;4.40;;;;;;;16.04;30.81;97878.31;4452995;32;20089;-89
2022/04/05 09:18:44;;;;;;;11.43;4.00;;;;;;;16.16;30.08;97881.66;4442196;32;20107;-88
2022/04/05 09:21:11;;;;;;;10.73;3.92;;;;;;;16.10;30.06;97883.88;4455814;32;20077;-91
2022/04/05 09:23:41;;;;;;;10.40;3.77;;;;;;;15.90;30.43;97879.56;4428984;32;20184;-91
2022/04/05 09:26:12;;;;;;;13.15;4.25;;;;;;;15.89;30.83;97883.19;4455937;32;20097;-92
2022/04/05 09:28:40;;;;;;;10.75;4.07;;;;;;;15.83;31.13;97879.28;4455228;32;20115;-89
2022/04/05 09:31:10;;;;;;;9.68;4.05;;;;;;;15.65;31.07;97876.44;4442063;32;20084;-90
2022/04/05 09:34:08;;;;;;;10.20;4.20;;;;;;;15.50;31.23;97875.16;4441820;32;20127;-89
2022/04/05 09:36:36;;;;;;;10.48;4.47;;;;;;;15.40;31.44;97877.81;4448603;32;20157;-91
2022/04/05 09:39:17;;;;;;;11.60;4.55;;;;;;;15.42;32.24;97891.78;4455631;32;20117;-90
2022/04/05 09:42:00;;;;;;;10.70;4.93;;;;;;;15.47;32.04;97892.22;4441719;32;20081;-89
2022/04/05 09:44:32;;;;;;;10.85;4.18;;;;;;;15.38;32.13;97890.37;4455876;32;20144;-90
2022/04/05 09:47:16;;;;;;;11.02;4.30;;;;;;;15.48;32.75;97887.75;4441236;32;20093;-91
2022/04/05 09:49:43;;;;;;;10.23;4.45;;;;;;;15.68;32.54;97870.88;4452822;32;20101;-90
2022/04/05 09:52:29;;;;;;;9.73;4.40;;;;;;;15.64;32.65;97882.72;4441947;32;20109;-90
2022/04/05 09:54:55;;;;;;;11.70;5.07;;;;;;;15.82;33.10;97887.38;4440513;32;20120;-90
2022/04/05 09:57:31;;;;;;;12.10;5.18;;;;;;;16.02;32.64;97893.56;4437204;32;20162;-92
2022/04/05 10:00:11;;;;;;;11.82;5.22;;;;;;;16.14;32.89;97883.63;4455871;32;20168;-90
2022/04/05 10:03:08;;;;;;;11.10;5.07;;;;;;;16.37;32.89;97894.78;4448203;32;20110;-87
2022/04/05 10:05:34;;;;;;;13.05;5.68;;;;;;;16.40;32.48;97892.69;4418788;32;20117;-91
2022/04/05 10:08:00;;;;;;;11.88;5.28;;;;;;;16.39;32.39;97884.84;4450902;32;20610;-90
2022/04/05 10:10:26;;;;;;;11.27;4.85;;;;;;;16.53;32.51;97881.72;4425371;32;20116;-90
2022/04/05 10:12:52;;;;;;;10.38;4.40;;;;;;;16.73;31.74;97890.50;4443689;32;20115;-89
2022/04/05 10:15:21;;;;;;;10.68;4.30;;;;;;;16.73;31.55;97887.00;4413430;32;20134;-90
2022/04/05 10:17:47;;;;;;;11.05;4.40;;;;;;;16.84;31.36;97887.72;4454157;32;20174;-92
2022/04/05 10:20:13;;;;;;;10.80;4.50;;;;;;;16.98;31.40;97881.06;4441682;32;20109;-94
2022/04/05 10:22:40;;;;;;;10.18;4.47;;;;;;;17.07;30.95;97880.19;4454652;32;20101;-93
2022/04/05 10:25:09;;;;;;;10.40;4.53;;;;;;;16.96;30.96;97885.69;4456693;32;20096;-94
2022/04/05 10:27:35;;;;;;;10.18;4.53;;;;;;;16.70;31.23;97886.28;4442600;32;20202;-96
2022/04/05 10:30:09;;;;;;;13.35;5.05;;;;;;;16.78;31.98;97882.91;4447498;32;20572;-94
2022/04/05 10:32:52;;;;;;;10.85;5.18;;;;;;;16.58;31.97;97873.34;4455312;32;20057;-93
2022/04/05 10:35:21;;;;;;;10.95;4.85;;;;;;;16.73;32.10;97877.22;4441140;32;20105;-94
2022/04/05 10:37:47;;;;;;;11.02;4.47;;;;;;;16.76;31.77;97878.72;4455428;32;20095;-92
2022/04/05 10:40:15;;;;;;;12.77;4.20;;;;;;;16.74;31.58;97875.37;4458769;32;20124;-92
2022/04/05 10:42:47;;;;;;;11.73;4.20;;;;;;;16.76;30.94;97871.59;4456633;32;20431;-93
2022/04/05 10:45:19;;;;;;;11.95;4.80;;;;;;;16.27;31.63;97884.16;4455993;32;20105;-94
2022/04/05 10:48:18;;;;;;;10.40;4.47;;;;;;;16.28;31.51;97886.69;4457347;32;20111;-93
2022/04/05 10:51:06;;;;;;;11.75;4.97;;;;;;;16.35;32.45;97880.81;4458226;32;20088;-95
2022/04/05 10:53:33;;;;;;;11.55;5.10;;;;;;;16.20;32.84;97875.06;4457459;32;20076;-88
2022/04/05 10:56:07;;;;;;;11.60;4.87;;;;;;;16.29;32.63;97874.22;4456896;32;20723;-92
2022/04/05 10:58:40;;;;;;;11.48;4.97;;;;;;;16.47;32.59;97867.19;4441905;32;20100;-92
2022/04/05 11:01:18;;;;;;;11.07;4.90;;;;;;;16.10;32.68;97888.38;4456890;32;20521;-94
2022/04/05 11:04:16;;;;;;;10.23;4.30;;;;;;;16.18;32.75;97867.25;4458362;32;20393;-91
2022/04/05 11:07:05;;;;;;;9.55;3.97;;;;;;;16.22;32.54;97883.75;4456706;32;20513;-92
2022/04/05 11:09:50;;;;;;;9.20;3.40;;;;;;;16.37;32.62;97871.69;4446522;32;20144;-94
2022/04/05 11:12:19;;;;;;;9.75;3.62;;;;;;;15.78;32.33;97876.22;4445709;32;20428;-94
2022/04/05 11:14:49;;;;;;;9.43;3.45;;;;;;;15.94;32.31;97883.63;4443269;32;20088;-94
2022/04/05 11:17:16;;;;;;;8.55;2.90;;;;;;;16.04;32.08;97892.41;4444158;32;20089;-94
2022/04/05 11:19:43;;;;;;;11.05;3.42;;;;;;;16.23;32.36;97880.94;4455800;32;20161;-92
2022/04/05 11:22:21;;;;;;;10.40;3.47;;;;;;;16.55;31.97;97879.75;4426519;32;20401;-94
2022/04/05 11:24:50;;;;;;;8.77;2.80;;;;;;;16.31;32.37;97878.41;4439975;32;20082;-91
2022/04/05 11:27:31;;;;;;;8.40;2.78;;;;;;;16.58;32.47;97874.16;4441304;32;20529;-90
2022/04/05 11:30:28;;;;;;;6.30;2.12;;;;;;;15.50;33.80;97894.56;4427792;32;20109;-95
2022/04/05 11:33:17;;;;;;;14.13;2.67;;;;;;;15.75;34.17;97892.41;4441414;32;20124;-95
2022/04/05 11:35:45;;;;;;;7.32;2.53;;;;;;;15.61;34.60;97906.91;4428898;32;20084;-96